Thurles, Ireland
Current Conditions -  °F | °C
As of 9:30 AM on Saturday 20 Dec 2014 (Local Time) from EIWF Reporting Station
Scattered Clouds Scattered Clouds  
Wind Chill: 39°   Ceiling: Unl
Heat Index: 43°   Visibility: 6mi
Dew Point: 37°   Wind: 6mph
Humidity: 81%   Direction: 280°W
Pressure: 30.36"   Gusts: NA
Location:  52.68°N, 7.48°W
Report Text: EIWF 200830Z 28005KT 9999 SCT040 06/03 Q1028
Loading
Personal Weather Stations






























Interactive Weather Map New forecast layout! Learn more

10-Day Weather Forecast

Advertisements
Track Severe Weather on mobile